createdAt,value
2022-09-04T00:00:10.467Z,50.00
2022-09-04T00:03:23.106Z,50.10
2022-09-04T00:06:19.522Z,50.00
2022-09-04T00:09:17.379Z,50.00
2022-09-04T00:12:08.994Z,49.90
2022-09-04T00:15:02.687Z,49.90
2022-09-04T00:17:56.424Z,49.80
2022-09-04T00:20:52.291Z,49.80
2022-09-04T00:23:46.496Z,49.80
2022-09-04T00:26:50.224Z,49.80
2022-09-04T00:29:49.078Z,49.80
2022-09-04T00:32:43.827Z,49.80
2022-09-04T00:35:35.252Z,49.90
2022-09-04T00:38:39.841Z,50.50
2022-09-04T00:41:31.883Z,49.90
2022-09-04T00:44:46.498Z,49.90
2022-09-04T00:48:31.958Z,49.90
2022-09-04T00:51:31.020Z,49.90
2022-09-04T00:54:45.635Z,49.80
2022-09-04T00:57:59.887Z,49.90
2022-09-04T01:00:48.492Z,49.80
2022-09-04T01:03:51.048Z,49.90
2022-09-04T01:06:50.011Z,50.00
2022-09-04T01:10:04.504Z,50.00
2022-09-04T01:13:01.583Z,49.80
2022-09-04T01:15:59.382Z,49.90
2022-09-04T01:18:57.066Z,49.80
2022-09-04T01:22:07.504Z,49.80
2022-09-04T01:25:29.145Z,49.70
2022-09-04T01:28:28.242Z,49.70
2022-09-04T01:31:28.366Z,49.60
2022-09-04T01:34:36.857Z,49.60
2022-09-04T01:37:49.078Z,49.70
2022-09-04T01:40:43.596Z,49.70
2022-09-04T01:43:33.096Z,49.80
2022-09-04T01:46:47.433Z,49.60
2022-09-04T01:49:39.670Z,49.60
2022-09-04T01:52:41.393Z,49.60
2022-09-04T01:55:36.258Z,49.70
2022-09-04T01:58:35.467Z,49.70
2022-09-04T02:01:31.888Z,49.70
2022-09-04T02:04:29.646Z,49.60
2022-09-04T02:07:29.343Z,49.70
2022-09-04T02:10:31.958Z,49.80
2022-09-04T02:13:29.485Z,49.80
2022-09-04T02:16:31.202Z,49.90
2022-09-04T02:19:36.315Z,49.90
2022-09-04T02:22:31.712Z,50.00
2022-09-04T02:25:29.797Z,50.00
2022-09-04T02:28:30.960Z,50.00
2022-09-04T02:31:31.796Z,49.90
2022-09-04T02:34:30.799Z,50.00
2022-09-04T02:37:28.898Z,49.90
2022-09-04T02:40:27.717Z,49.90
2022-09-04T02:43:35.622Z,49.90
2022-09-04T02:46:38.084Z,49.80
2022-09-04T02:49:39.117Z,49.60
2022-09-04T02:52:47.810Z,49.60
2022-09-04T02:55:54.209Z,49.60
2022-09-04T02:58:53.950Z,49.60
2022-09-04T03:01:53.477Z,49.50
2022-09-04T03:04:51.001Z,49.60
2022-09-04T03:07:44.283Z,49.50
2022-09-04T03:10:36.613Z,49.50
2022-09-04T03:13:31.661Z,49.50
2022-09-04T03:16:26.574Z,49.60
2022-09-04T03:19:23.493Z,49.50
2022-09-04T03:22:19.072Z,49.50
2022-09-04T03:25:29.856Z,49.60
2022-09-04T03:28:29.377Z,49.60
2022-09-04T03:31:29.989Z,49.50
2022-09-04T03:34:43.859Z,49.50
2022-09-04T03:38:02.927Z,49.50
2022-09-04T03:41:00.553Z,49.50
2022-09-04T03:44:05.002Z,49.40
2022-09-04T03:47:03.875Z,49.40
2022-09-04T03:50:12.228Z,49.50
2022-09-04T03:53:11.685Z,49.50
2022-09-04T03:56:33.414Z,49.50
2022-09-04T03:59:44.925Z,49.60
2022-09-04T04:03:05.368Z,49.60
2022-09-04T04:06:08.703Z,49.60
2022-09-04T04:09:35.742Z,49.60
2022-09-04T04:13:01.555Z,49.70
2022-09-04T04:16:09.327Z,49.80
2022-09-04T04:19:13.652Z,49.80
2022-09-04T04:22:27.067Z,49.80
2022-09-04T04:25:40.826Z,49.80
2022-09-04T04:28:59.245Z,49.80
2022-09-04T04:32:11.620Z,49.80
2022-09-04T04:35:21.023Z,49.80
2022-09-04T04:38:29.715Z,49.80
2022-09-04T04:41:56.449Z,49.70
2022-09-04T04:45:26.464Z,49.60
2022-09-04T04:49:14.357Z,49.50
2022-09-04T04:52:25.966Z,49.60
2022-09-04T04:55:31.109Z,49.60
2022-09-04T04:58:59.434Z,49.50
2022-09-04T05:02:00.577Z,49.50
2022-09-04T05:04:55.334Z,49.60
2022-09-04T05:07:52.883Z,49.50
2022-09-04T05:10:47.098Z,50.30
2022-09-04T05:13:48.625Z,49.70
2022-09-04T05:16:54.850Z,49.80
2022-09-04T05:19:52.509Z,49.80
2022-09-04T05:22:46.005Z,49.80
2022-09-04T05:25:44.185Z,49.80
2022-09-04T05:28:43.523Z,50.00
2022-09-04T05:31:42.300Z,50.00
2022-09-04T05:34:40.407Z,50.00
2022-09-04T05:37:32.417Z,50.00
2022-09-04T05:40:30.134Z,50.00
2022-09-04T05:43:35.379Z,50.00
2022-09-04T05:46:43.767Z,50.00
2022-09-04T05:49:54.517Z,50.00
2022-09-04T05:53:20.916Z,50.00
2022-09-04T05:57:02.383Z,50.00
2022-09-04T06:00:10.542Z,50.00
2022-09-04T06:03:50.028Z,50.00
2022-09-04T06:06:46.124Z,50.00
2022-09-04T06:09:47.844Z,50.10
2022-09-04T06:13:04.577Z,50.20
2022-09-04T06:16:11.669Z,50.40
2022-09-04T06:19:31.250Z,50.50
2022-09-04T06:22:52.767Z,50.60
2022-09-04T06:26:05.061Z,50.80
2022-09-04T06:29:28.297Z,50.80
2022-09-04T06:32:45.002Z,50.50
2022-09-04T06:36:10.243Z,50.70
2022-09-04T06:39:27.615Z,50.80
2022-09-04T06:42:43.095Z,50.80
2022-09-04T06:45:50.517Z,50.90
2022-09-04T06:48:56.932Z,50.90
2022-09-04T06:52:07.878Z,50.90
2022-09-04T06:55:01.759Z,51.00
2022-09-04T06:58:16.156Z,50.90
2022-09-04T07:01:09.032Z,51.00
2022-09-04T07:04:08.099Z,51.00
2022-09-04T07:07:06.386Z,51.00
2022-09-04T07:10:01.535Z,50.90
2022-09-04T07:13:33.937Z,51.10
2022-09-04T07:16:36.008Z,51.00
2022-09-04T07:19:58.190Z,51.10
2022-09-04T07:23:17.976Z,51.00
2022-09-04T07:26:18.079Z,51.20
2022-09-04T07:29:25.788Z,51.30
2022-09-04T07:32:21.561Z,51.40
2022-09-04T07:35:18.825Z,51.40
2022-09-04T07:38:17.659Z,52.20
2022-09-04T07:41:14.913Z,53.10
2022-09-04T07:44:14.388Z,52.10
2022-09-04T07:47:12.259Z,52.20
2022-09-04T07:50:08.496Z,53.10
2022-09-04T07:53:20.197Z,52.60
2022-09-04T07:56:22.002Z,52.10
2022-09-04T07:59:50.433Z,52.50
2022-09-04T08:03:04.948Z,53.10
2022-09-04T08:06:01.184Z,53.60
2022-09-04T08:09:18.211Z,53.50
2022-09-04T08:12:31.318Z,53.70
2022-09-04T08:15:22.282Z,52.80
2022-09-04T08:18:35.223Z,52.30
2022-09-04T08:21:30.205Z,52.00
2022-09-04T08:24:38.441Z,51.90
2022-09-04T08:27:47.814Z,51.70
2022-09-04T08:30:42.850Z,51.80
2022-09-04T08:34:11.465Z,51.20
2022-09-04T08:37:13.682Z,52.50
2022-09-04T08:40:34.255Z,51.80
2022-09-04T08:43:44.316Z,51.30
2022-09-04T08:47:19.777Z,51.70
2022-09-04T08:50:59.326Z,52.30
2022-09-04T08:54:25.480Z,52.60
2022-09-04T08:57:43.459Z,53.00
2022-09-04T09:00:42.548Z,52.70
2022-09-04T09:04:13.006Z,52.00
2022-09-04T09:07:31.441Z,52.80
2022-09-04T09:11:20.038Z,53.20
2022-09-04T09:15:00.802Z,53.40
2022-09-04T09:18:03.197Z,52.90
2022-09-04T09:21:01.297Z,53.30
2022-09-04T09:24:22.376Z,53.10
2022-09-04T09:27:54.554Z,52.30
2022-09-04T09:31:16.982Z,52.60
2022-09-04T09:34:48.081Z,53.10
2022-09-04T09:38:34.890Z,52.60
2022-09-04T09:41:55.604Z,52.70
2022-09-04T09:45:27.060Z,54.70
2022-09-04T09:49:15.136Z,54.40
2022-09-04T09:53:08.995Z,54.50
2022-09-04T09:56:57.941Z,54.10
2022-09-04T10:00:19.870Z,53.50
2022-09-04T10:03:56.070Z,54.00
2022-09-04T10:07:19.867Z,54.10
2022-09-04T10:10:56.433Z,54.10
2022-09-04T10:14:15.098Z,54.40
2022-09-04T10:17:40.756Z,53.80
2022-09-04T10:21:20.801Z,53.50
2022-09-04T10:24:54.843Z,52.60
2022-09-04T10:28:26.115Z,51.70
2022-09-04T10:31:49.436Z,51.00
2022-09-04T10:35:10.893Z,50.10
2022-09-04T10:38:35.073Z,49.30
2022-09-04T10:41:48.315Z,48.70
2022-09-04T10:44:59.448Z,48.70
2022-09-04T10:48:50.202Z,48.00
2022-09-04T10:52:10.552Z,48.40
2022-09-04T10:55:29.164Z,47.90
2022-09-04T10:58:42.245Z,47.70
2022-09-04T11:02:03.315Z,47.40
2022-09-04T11:05:36.510Z,47.70
2022-09-04T11:08:53.217Z,48.10
2022-09-04T11:12:21.330Z,47.70
2022-09-04T11:15:50.420Z,47.80
2022-09-04T11:19:03.690Z,47.70
2022-09-04T11:22:43.941Z,48.20
2022-09-04T11:26:15.225Z,48.40
2022-09-04T11:29:41.344Z,48.60
2022-09-04T11:33:14.176Z,48.60
2022-09-04T11:36:49.763Z,48.80
2022-09-04T11:40:11.558Z,48.80
2022-09-04T11:43:19.201Z,48.60
2022-09-04T11:46:33.875Z,48.70
2022-09-04T11:49:54.739Z,48.60
2022-09-04T11:53:11.407Z,48.10
2022-09-04T11:56:26.907Z,48.60
2022-09-04T12:00:03.788Z,48.70
2022-09-04T12:03:27.284Z,48.80
2022-09-04T12:06:46.337Z,48.60
2022-09-04T12:10:18.049Z,48.90
2022-09-04T12:13:47.143Z,49.00
2022-09-04T12:17:20.332Z,49.30
2022-09-04T12:20:41.185Z,48.90
2022-09-04T12:24:04.233Z,48.90
2022-09-04T12:27:39.531Z,49.00
2022-09-04T12:30:36.003Z,48.60
2022-09-04T12:34:06.322Z,49.00
2022-09-04T12:37:23.258Z,49.20
2022-09-04T12:40:35.306Z,49.00
2022-09-04T12:43:41.764Z,48.60
2022-09-04T12:47:14.017Z,48.70
2022-09-04T12:50:21.402Z,48.80
2022-09-04T12:53:55.679Z,48.90
2022-09-04T12:56:57.725Z,49.10
2022-09-04T13:00:08.232Z,49.70
2022-09-04T13:03:13.224Z,48.90
2022-09-04T13:06:20.981Z,48.60
2022-09-04T13:09:20.149Z,48.60
2022-09-04T13:12:22.225Z,48.30
2022-09-04T13:15:31.996Z,48.40
2022-09-04T13:18:38.533Z,48.50
2022-09-04T13:21:45.001Z,48.20
2022-09-04T13:24:51.188Z,48.10
2022-09-04T13:27:58.463Z,48.20
2022-09-04T13:30:57.268Z,48.20
2022-09-04T13:33:55.865Z,48.10
2022-09-04T13:36:58.209Z,48.10
2022-09-04T13:40:08.351Z,48.00
2022-09-04T13:43:25.314Z,47.80
2022-09-04T13:46:18.838Z,47.80
2022-09-04T13:49:11.076Z,48.00
2022-09-04T13:52:07.465Z,47.80
2022-09-04T13:55:03.402Z,47.80
2022-09-04T13:58:00.811Z,47.70
2022-09-04T14:00:53.739Z,47.50
2022-09-04T14:03:47.030Z,47.50
2022-09-04T14:06:36.096Z,47.50
2022-09-04T14:09:24.744Z,47.50
2022-09-04T14:12:51.814Z,47.50
2022-09-04T14:16:04.462Z,47.30
2022-09-04T14:19:17.417Z,47.40
2022-09-04T14:22:34.528Z,47.40
2022-09-04T14:25:30.684Z,47.30
2022-09-04T14:28:25.126Z,47.20
2022-09-04T14:31:24.375Z,47.00
2022-09-04T14:34:19.119Z,47.40
2022-09-04T14:37:27.278Z,47.40
2022-09-04T14:40:18.372Z,47.90
2022-09-04T14:43:17.052Z,47.40
2022-09-04T14:46:15.733Z,47.30
2022-09-04T14:49:07.259Z,47.00
2022-09-04T14:51:57.172Z,47.80
2022-09-04T14:54:46.704Z,47.20
2022-09-04T14:57:42.615Z,47.30
2022-09-04T15:00:30.685Z,47.20
2022-09-04T15:03:24.555Z,47.20
2022-09-04T15:06:22.586Z,47.10
2022-09-04T15:09:26.425Z,47.10
2022-09-04T15:12:25.138Z,47.20
2022-09-04T15:15:22.205Z,47.00
2022-09-04T15:18:16.153Z,47.00
2022-09-04T15:21:13.321Z,47.00
2022-09-04T15:24:15.994Z,47.00
2022-09-04T15:27:13.692Z,47.10
2022-09-04T15:30:07.508Z,47.00
2022-09-04T15:33:06.615Z,47.00
2022-09-04T15:36:08.426Z,46.90
2022-09-04T15:38:59.322Z,46.60
2022-09-04T15:41:50.048Z,46.80
2022-09-04T15:44:44.502Z,46.80
2022-09-04T15:47:56.664Z,46.60
2022-09-04T15:50:59.053Z,46.70
2022-09-04T15:54:08.528Z,46.50
2022-09-04T15:57:08.498Z,46.60
2022-09-04T16:00:03.726Z,46.50
2022-09-04T16:03:09.049Z,46.50
2022-09-04T16:06:03.751Z,46.60
2022-09-04T16:09:01.013Z,46.60
2022-09-04T16:11:59.781Z,46.50
2022-09-04T16:14:50.923Z,46.60
2022-09-04T16:17:44.156Z,46.50
2022-09-04T16:20:40.889Z,46.50
2022-09-04T16:23:32.221Z,46.40
2022-09-04T16:26:27.169Z,46.50
2022-09-04T16:29:28.095Z,46.50
2022-09-04T16:32:23.554Z,46.40
2022-09-04T16:35:19.459Z,46.50
2022-09-04T16:38:14.887Z,46.50
2022-09-04T16:41:06.149Z,46.50
2022-09-04T16:44:27.907Z,46.50
2022-09-04T16:47:22.702Z,46.60
2022-09-04T16:50:22.181Z,46.50
2022-09-04T16:53:17.543Z,46.50
2022-09-04T16:56:12.964Z,46.40
2022-09-04T16:59:17.720Z,46.40
2022-09-04T17:02:22.995Z,46.30
2022-09-04T17:05:28.108Z,46.30
2022-09-04T17:08:20.767Z,46.30
2022-09-04T17:11:18.302Z,46.40
2022-09-04T17:14:16.785Z,46.40
2022-09-04T17:17:31.649Z,47.10
2022-09-04T17:20:47.161Z,46.50
2022-09-04T17:28:57.771Z,46.30
2022-09-04T17:29:13.395Z,46.40
2022-09-04T17:30:05.519Z,46.30
2022-09-04T17:36:16.321Z,46.30
2022-09-04T17:40:38.518Z,46.40
2022-09-04T17:40:41.787Z,46.20
2022-09-04T17:43:21.717Z,46.60
2022-09-04T17:46:27.615Z,46.90
2022-09-04T17:49:21.252Z,47.10
2022-09-04T17:52:28.792Z,47.30
2022-09-04T17:55:16.122Z,47.00
2022-09-04T17:58:11.658Z,47.00
2022-09-04T18:01:15.516Z,47.20
2022-09-04T18:04:31.212Z,47.80
2022-09-04T18:08:06.749Z,47.70
2022-09-04T18:10:43.239Z,47.60
2022-09-04T18:13:41.087Z,47.30
2022-09-04T18:17:12.535Z,47.00
2022-09-04T18:20:14.470Z,47.10
2022-09-04T18:23:46.386Z,46.90
2022-09-04T18:26:42.761Z,46.80
2022-09-04T18:32:34.520Z,46.60
2022-09-04T18:37:11.131Z,46.40
2022-09-04T18:37:40.697Z,46.50
2022-09-04T18:39:32.931Z,46.50
2022-09-04T18:50:20.301Z,46.50
2022-09-04T18:50:44.808Z,46.40
2022-09-04T18:50:53.391Z,46.40
2022-09-04T18:52:20.213Z,46.40
2022-09-04T18:55:16.052Z,46.40
2022-09-04T18:58:42.682Z,46.30
2022-09-04T19:01:42.540Z,46.40
2022-09-04T19:04:52.472Z,46.30
2022-09-04T19:07:47.973Z,46.50
2022-09-04T19:10:38.932Z,46.50
2022-09-04T19:13:32.374Z,46.60
2022-09-04T19:16:27.547Z,46.60
2022-09-04T19:19:20.851Z,46.60
2022-09-04T19:22:16.964Z,46.60
2022-09-04T19:25:12.370Z,46.60
2022-09-04T19:28:10.589Z,46.70
2022-09-04T19:31:04.324Z,46.70
2022-09-04T19:33:58.772Z,46.80
2022-09-04T19:36:53.572Z,46.70
2022-09-04T19:46:02.491Z,46.60
2022-09-04T19:46:02.565Z,46.50
2022-09-04T19:46:30.560Z,46.60
2022-09-04T19:50:48.804Z,46.70
2022-09-04T19:53:31.360Z,46.60
2022-09-04T19:55:48.362Z,46.70
2022-09-04T19:58:43.952Z,46.70
2022-09-04T20:01:42.458Z,46.80
2022-09-04T20:04:37.350Z,46.80
2022-09-04T20:07:41.670Z,46.50
2022-09-04T20:10:42.543Z,46.60
2022-09-04T20:13:36.231Z,46.70
2022-09-04T20:16:28.985Z,46.90
2022-09-04T20:19:28.022Z,46.80
2022-09-04T20:22:31.671Z,46.90
2022-09-04T20:25:46.246Z,47.10
2022-09-04T20:28:48.566Z,47.10
2022-09-04T20:31:52.691Z,46.90
2022-09-04T20:34:48.371Z,46.90
2022-09-04T20:37:45.927Z,47.10
2022-09-04T20:40:42.542Z,47.00
2022-09-04T20:43:43.520Z,47.00
2022-09-04T20:49:40.330Z,47.00
2022-09-04T20:52:49.564Z,47.10
2022-09-04T20:53:20.342Z,47.00
2022-09-04T20:57:31.532Z,47.00
2022-09-04T21:03:12.997Z,47.10
2022-09-04T21:03:23.111Z,47.20
2022-09-04T21:06:30.712Z,47.10
2022-09-04T21:09:33.433Z,47.20
2022-09-04T21:12:34.494Z,47.40
2022-09-04T21:15:44.411Z,47.30
2022-09-04T21:19:27.690Z,47.90
2022-09-04T21:22:32.228Z,47.20
2022-09-04T21:25:33.053Z,48.00
2022-09-04T21:28:50.203Z,47.20
2022-09-04T21:32:07.573Z,47.30
2022-09-04T21:35:14.473Z,47.30
2022-09-04T21:38:34.638Z,47.30
2022-09-04T21:41:32.097Z,47.30
2022-09-04T21:44:51.887Z,47.30
2022-09-04T21:48:23.402Z,47.50
2022-09-04T21:51:34.036Z,47.50
2022-09-04T21:57:02.754Z,47.40
2022-09-04T22:02:39.478Z,47.40
2022-09-04T22:02:46.082Z,47.20
2022-09-04T22:05:35.803Z,47.20
2022-09-04T22:13:31.540Z,47.40
2022-09-04T22:13:37.376Z,47.40
2022-09-04T22:15:11.233Z,47.50
2022-09-04T22:18:16.281Z,47.40
2022-09-04T22:21:25.574Z,47.50
2022-09-04T22:24:58.494Z,47.50
2022-09-04T22:28:12.757Z,47.60
2022-09-04T22:31:31.365Z,47.50
2022-09-04T22:35:27.757Z,47.60
2022-09-04T22:39:12.279Z,47.40
2022-09-04T22:42:43.352Z,47.40
2022-09-04T22:46:16.792Z,47.50
2022-09-04T22:49:43.535Z,47.50
2022-09-04T22:52:44.301Z,47.50
2022-09-04T22:56:03.857Z,47.30
2022-09-04T22:59:44.113Z,47.40
2022-09-04T23:03:10.065Z,47.40
2022-09-04T23:08:46.920Z,47.50
2022-09-04T23:13:50.522Z,47.50
2022-09-04T23:14:06.432Z,47.50
2022-09-04T23:17:17.698Z,47.50
2022-09-04T23:26:32.647Z,47.50
2022-09-04T23:26:43.941Z,47.60
2022-09-04T23:27:53.128Z,47.70
2022-09-04T23:30:52.409Z,47.60
2022-09-04T23:33:54.722Z,47.70
2022-09-04T23:37:36.943Z,47.70
2022-09-04T23:40:39.379Z,47.70
2022-09-04T23:44:16.777Z,47.70
2022-09-04T23:47:49.397Z,47.70
2022-09-04T23:50:49.809Z,47.70
2022-09-04T23:53:47.948Z,47.80
2022-09-04T23:56:37.202Z,47.80
2022-09-04T23:59:36.163Z,47.70
